sensor_id;sensor_type;location;lat;lon;timestamp;P1;durP1;ratioP1;P2;durP2;ratioP2
5878;SDS011;2965;42.640;23.370;2023-09-30T04:01:30;14.37;;;10.40;;
5878;SDS011;2965;42.640;23.370;2023-09-30T04:03:56;11.20;;;10.00;;
5878;SDS011;2965;42.640;23.370;2023-09-30T04:06:22;12.90;;;9.67;;
5878;SDS011;2965;42.640;23.370;2023-09-30T04:08:47;28.67;;;10.77;;
5878;SDS011;2965;42.640;23.370;2023-09-30T04:11:13;20.50;;;10.77;;
5878;SDS011;2965;42.640;23.370;2023-09-30T04:13:44;13.93;;;9.73;;
5878;SDS011;2965;42.640;23.370;2023-09-30T04:16:10;13.53;;;10.70;;
5878;SDS011;2965;42.640;23.370;2023-09-30T04:18:35;19.07;;;9.77;;
5878;SDS011;2965;42.640;23.370;2023-09-30T04:21:02;13.87;;;10.90;;
5878;SDS011;2965;42.640;23.370;2023-09-30T04:23:29;23.00;;;10.90;;
5878;SDS011;2965;42.640;23.370;2023-09-30T04:25:55;14.17;;;9.80;;
5878;SDS011;2965;42.640;23.370;2023-09-30T04:28:20;24.20;;;9.93;;
5878;SDS011;2965;42.640;23.370;2023-09-30T04:30:47;18.13;;;10.87;;
5878;SDS011;2965;42.640;23.370;2023-09-30T04:33:13;16.00;;;10.37;;
5878;SDS011;2965;42.640;23.370;2023-09-30T04:35:39;13.93;;;11.00;;
5878;SDS011;2965;42.640;23.370;2023-09-30T04:38:05;15.80;;;11.17;;
5878;SDS011;2965;42.640;23.370;2023-09-30T04:40:31;27.00;;;15.60;;
5878;SDS011;2965;42.640;23.370;2023-09-30T04:42:58;17.70;;;11.30;;
5878;SDS011;2965;42.640;23.370;2023-09-30T04:45:24;18.33;;;13.70;;
5878;SDS011;2965;42.640;23.370;2023-09-30T04:47:51;28.70;;;15.60;;
5878;SDS011;2965;42.640;23.370;2023-09-30T04:50:17;43.70;;;28.60;;
5878;SDS011;2965;42.640;23.370;2023-09-30T04:52:43;35.00;;;23.37;;
5878;SDS011;2965;42.640;23.370;2023-09-30T04:55:10;30.37;;;18.50;;
5878;SDS011;2965;42.640;23.370;2023-09-30T04:57:37;49.57;;;29.33;;
5878;SDS011;2965;42.640;23.370;2023-09-30T05:00:03;35.60;;;23.83;;
5878;SDS011;2965;42.640;23.370;2023-09-30T05:02:35;38.23;;;21.80;;
5878;SDS011;2965;42.640;23.370;2023-09-30T05:05:01;37.07;;;22.80;;
5878;SDS011;2965;42.640;23.370;2023-09-30T05:07:26;41.67;;;27.00;;
5878;SDS011;2965;42.640;23.370;2023-09-30T05:09:53;45.13;;;29.47;;
5878;SDS011;2965;42.640;23.370;2023-09-30T05:12:19;40.90;;;24.67;;
5878;SDS011;2965;42.640;23.370;2023-09-30T05:14:45;79.23;;;43.83;;
5878;SDS011;2965;42.640;23.370;2023-09-30T05:17:10;110.87;;;55.53;;
5878;SDS011;2965;42.640;23.370;2023-09-30T05:19:37;56.80;;;34.37;;
5878;SDS011;2965;42.640;23.370;2023-09-30T05:22:02;56.90;;;34.70;;
5878;SDS011;2965;42.640;23.370;2023-09-30T05:24:28;104.50;;;46.93;;
5878;SDS011;2965;42.640;23.370;2023-09-30T05:26:54;79.90;;;43.33;;
5878;SDS011;2965;42.640;23.370;2023-09-30T05:29:19;57.50;;;34.87;;
5878;SDS011;2965;42.640;23.370;2023-09-30T05:31:45;87.50;;;48.43;;
5878;SDS011;2965;42.640;23.370;2023-09-30T05:34:10;72.90;;;38.80;;
5878;SDS011;2965;42.640;23.370;2023-09-30T05:36:36;106.60;;;58.70;;
5878;SDS011;2965;42.640;23.370;2023-09-30T05:39:01;106.43;;;51.63;;
5878;SDS011;2965;42.640;23.370;2023-09-30T05:41:28;82.23;;;42.07;;
5878;SDS011;2965;42.640;23.370;2023-09-30T05:43:54;79.33;;;39.30;;
5878;SDS011;2965;42.640;23.370;2023-09-30T05:46:20;64.90;;;32.80;;
5878;SDS011;2965;42.640;23.370;2023-09-30T05:48:46;63.33;;;31.93;;
5878;SDS011;2965;42.640;23.370;2023-09-30T05:51:11;68.03;;;34.30;;
5878;SDS011;2965;42.640;23.370;2023-09-30T05:53:40;46.37;;;27.67;;
5878;SDS011;2965;42.640;23.370;2023-09-30T05:56:06;64.43;;;30.23;;
5878;SDS011;2965;42.640;23.370;2023-09-30T05:58:32;44.83;;;25.60;;
5878;SDS011;2965;42.640;23.370;2023-09-30T06:00:58;41.80;;;21.30;;
5878;SDS011;2965;42.640;23.370;2023-09-30T06:03:25;33.67;;;21.40;;
5878;SDS011;2965;42.640;23.370;2023-09-30T06:05:54;34.20;;;20.30;;
5878;SDS011;2965;42.640;23.370;2023-09-30T06:08:21;29.93;;;17.87;;
5878;SDS011;2965;42.640;23.370;2023-09-30T06:10:46;46.87;;;17.17;;
5878;SDS011;2965;42.640;23.370;2023-09-30T06:13:12;32.13;;;17.53;;
5878;SDS011;2965;42.640;23.370;2023-09-30T06:15:38;26.73;;;16.30;;
5878;SDS011;2965;42.640;23.370;2023-09-30T06:18:05;24.90;;;15.37;;
5878;SDS011;2965;42.640;23.370;2023-09-30T06:20:31;31.93;;;15.57;;
5878;SDS011;2965;42.640;23.370;2023-09-30T06:22:56;28.27;;;14.13;;
5878;SDS011;2965;42.640;23.370;2023-09-30T06:25:23;24.83;;;13.83;;
5878;SDS011;2965;42.640;23.370;2023-09-30T06:27:49;32.13;;;13.77;;
5878;SDS011;2965;42.640;23.370;2023-09-30T06:30:15;21.87;;;13.80;;
5878;SDS011;2965;42.640;23.370;2023-09-30T06:32:42;32.00;;;14.30;;
5878;SDS011;2965;42.640;23.370;2023-09-30T06:35:08;27.93;;;14.50;;
5878;SDS011;2965;42.640;23.370;2023-09-30T06:37:37;20.87;;;13.23;;
5878;SDS011;2965;42.640;23.370;2023-09-30T06:40:07;22.77;;;13.60;;
5878;SDS011;2965;42.640;23.370;2023-09-30T06:42:34;23.80;;;15.10;;
5878;SDS011;2965;42.640;23.370;2023-09-30T06:45:00;45.47;;;14.70;;
5878;SDS011;2965;42.640;23.370;2023-09-30T06:47:26;28.97;;;13.70;;
5878;SDS011;2965;42.640;23.370;2023-09-30T06:49:52;26.83;;;15.60;;
5878;SDS011;2965;42.640;23.370;2023-09-30T06:52:18;22.93;;;13.70;;
5878;SDS011;2965;42.640;23.370;2023-09-30T06:54:45;30.87;;;14.23;;
5878;SDS011;2965;42.640;23.370;2023-09-30T06:57:10;22.83;;;14.80;;
5878;SDS011;2965;42.640;23.370;2023-09-30T06:59:36;23.03;;;13.20;;
5878;SDS011;2965;42.640;23.370;2023-09-30T07:02:02;19.93;;;11.70;;
5878;SDS011;2965;42.640;23.370;2023-09-30T07:04:28;20.17;;;11.90;;
5878;SDS011;2965;42.640;23.370;2023-09-30T07:06:54;30.33;;;12.43;;
5878;SDS011;2965;42.640;23.370;2023-09-30T07:09:20;32.03;;;11.13;;
5878;SDS011;2965;42.640;23.370;2023-09-30T07:11:45;24.93;;;10.13;;
5878;SDS011;2965;42.640;23.370;2023-09-30T07:14:11;11.00;;;9.43;;
5878;SDS011;2965;42.640;23.370;2023-09-30T07:16:36;21.00;;;10.07;;
5878;SDS011;2965;42.640;23.370;2023-09-30T07:19:02;17.57;;;8.50;;
5878;SDS011;2965;42.640;23.370;2023-09-30T07:21:28;16.73;;;9.53;;
5878;SDS011;2965;42.640;23.370;2023-09-30T07:23:53;18.80;;;9.13;;
5878;SDS011;2965;42.640;23.370;2023-09-30T07:26:22;25.70;;;10.97;;
5878;SDS011;2965;42.640;23.370;2023-09-30T07:28:51;9.73;;;8.03;;
5878;SDS011;2965;42.640;23.370;2023-09-30T07:31:16;19.90;;;8.30;;
5878;SDS011;2965;42.640;23.370;2023-09-30T07:33:42;23.43;;;8.50;;
5878;SDS011;2965;42.640;23.370;2023-09-30T07:36:07;15.00;;;9.03;;
5878;SDS011;2965;42.640;23.370;2023-09-30T07:38:32;20.83;;;8.67;;
5878;SDS011;2965;42.640;23.370;2023-09-30T07:40:59;11.23;;;8.20;;
5878;SDS011;2965;42.640;23.370;2023-09-30T07:43:25;8.40;;;7.60;;
5878;SDS011;2965;42.640;23.370;2023-09-30T07:45:52;12.50;;;7.23;;
5878;SDS011;2965;42.640;23.370;2023-09-30T07:48:19;15.73;;;7.93;;
5878;SDS011;2965;42.640;23.370;2023-09-30T07:50:44;13.87;;;8.13;;
5878;SDS011;2965;42.640;23.370;2023-09-30T07:53:09;10.57;;;8.03;;
5878;SDS011;2965;42.640;23.370;2023-09-30T07:55:37;15.33;;;7.57;;
5878;SDS011;2965;42.640;23.370;2023-09-30T07:58:02;20.77;;;7.80;;
5878;SDS011;2965;42.640;23.370;2023-09-30T08:00:28;15.67;;;8.47;;
5878;SDS011;2965;42.640;23.370;2023-09-30T08:02:54;12.77;;;7.93;;
5878;SDS011;2965;42.640;23.370;2023-09-30T08:05:19;11.60;;;7.47;;
5878;SDS011;2965;42.640;23.370;2023-09-30T08:07:45;16.73;;;8.40;;
5878;SDS011;2965;42.640;23.370;2023-09-30T08:10:11;12.97;;;6.87;;
5878;SDS011;2965;42.640;23.370;2023-09-30T08:12:41;19.77;;;8.00;;
5878;SDS011;2965;42.640;23.370;2023-09-30T08:15:07;15.30;;;7.20;;
5878;SDS011;2965;42.640;23.370;2023-09-30T08:17:33;16.83;;;7.10;;
5878;SDS011;2965;42.640;23.370;2023-09-30T08:19:59;9.23;;;8.07;;
5878;SDS011;2965;42.640;23.370;2023-09-30T08:22:24;14.20;;;7.43;;
5878;SDS011;2965;42.640;23.370;2023-09-30T08:24:53;23.60;;;8.17;;
5878;SDS011;2965;42.640;23.370;2023-09-30T08:27:19;11.00;;;7.60;;
5878;SDS011;2965;42.640;23.370;2023-09-30T08:29:45;21.23;;;7.47;;
5878;SDS011;2965;42.640;23.370;2023-09-30T08:32:11;18.83;;;8.20;;
5878;SDS011;2965;42.640;23.370;2023-09-30T08:34:36;13.50;;;8.43;;
5878;SDS011;2965;42.640;23.370;2023-09-30T08:37:01;13.23;;;9.07;;
5878;SDS011;2965;42.640;23.370;2023-09-30T08:39:27;16.13;;;8.60;;
5878;SDS011;2965;42.640;23.370;2023-09-30T08:41:54;12.43;;;8.40;;
5878;SDS011;2965;42.640;23.370;2023-09-30T08:44:21;23.57;;;10.80;;
5878;SDS011;2965;42.640;23.370;2023-09-30T08:46:46;14.50;;;9.60;;
5878;SDS011;2965;42.640;23.370;2023-09-30T08:49:12;12.50;;;9.47;;
5878;SDS011;2965;42.640;23.370;2023-09-30T08:51:39;11.50;;;9.30;;
5878;SDS011;2965;42.640;23.370;2023-09-30T08:54:05;17.03;;;10.00;;
5878;SDS011;2965;42.640;23.370;2023-09-30T08:56:31;17.07;;;9.60;;
5878;SDS011;2965;42.640;23.370;2023-09-30T08:59:00;17.13;;;10.50;;
5878;SDS011;2965;42.640;23.370;2023-09-30T09:01:28;22.23;;;10.07;;
5878;SDS011;2965;42.640;23.370;2023-09-30T09:03:54;14.47;;;10.37;;
5878;SDS011;2965;42.640;23.370;2023-09-30T09:06:20;10.97;;;9.73;;
5878;SDS011;2965;42.640;23.370;2023-09-30T09:08:47;12.67;;;10.27;;
5878;SDS011;2965;42.640;23.370;2023-09-30T09:11:12;16.93;;;9.83;;
5878;SDS011;2965;42.640;23.370;2023-09-30T09:13:49;19.20;;;10.67;;
5878;SDS011;2965;42.640;23.370;2023-09-30T09:16:18;13.13;;;9.80;;
5878;SDS011;2965;42.640;23.370;2023-09-30T09:18:43;16.70;;;9.33;;
5878;SDS011;2965;42.640;23.370;2023-09-30T09:21:10;11.87;;;9.50;;
5878;SDS011;2965;42.640;23.370;2023-09-30T09:23:54;11.13;;;10.10;;
5878;SDS011;2965;42.640;23.370;2023-09-30T09:26:30;15.07;;;10.10;;
5878;SDS011;2965;42.640;23.370;2023-09-30T09:28:57;15.60;;;9.97;;
5878;SDS011;2965;42.640;23.370;2023-09-30T09:31:25;10.60;;;9.50;;
5878;SDS011;2965;42.640;23.370;2023-09-30T09:33:52;16.93;;;9.00;;
5878;SDS011;2965;42.640;23.370;2023-09-30T09:36:18;10.67;;;9.67;;
5878;SDS011;2965;42.640;23.370;2023-09-30T09:38:49;14.60;;;9.50;;
5878;SDS011;2965;42.640;23.370;2023-09-30T09:41:18;12.67;;;10.37;;
5878;SDS011;2965;42.640;23.370;2023-09-30T09:43:44;10.27;;;9.27;;
5878;SDS011;2965;42.640;23.370;2023-09-30T09:46:13;11.97;;;9.30;;
5878;SDS011;2965;42.640;23.370;2023-09-30T09:48:39;9.90;;;9.00;;
5878;SDS011;2965;42.640;23.370;2023-09-30T09:51:04;13.50;;;10.17;;
5878;SDS011;2965;42.640;23.370;2023-09-30T09:53:36;14.60;;;8.87;;
5878;SDS011;2965;42.640;23.370;2023-09-30T09:56:02;21.60;;;8.23;;
5878;SDS011;2965;42.640;23.370;2023-09-30T09:58:28;9.37;;;8.17;;
5878;SDS011;2965;42.640;23.370;2023-09-30T10:00:59;18.47;;;8.17;;
5878;SDS011;2965;42.640;23.370;2023-09-30T10:03:26;11.07;;;9.37;;
5878;SDS011;2965;42.640;23.370;2023-09-30T10:05:52;12.80;;;9.33;;
5878;SDS011;2965;42.640;23.370;2023-09-30T10:08:18;15.80;;;8.10;;
5878;SDS011;2965;42.640;23.370;2023-09-30T10:10:46;14.83;;;7.10;;
5878;SDS011;2965;42.640;23.370;2023-09-30T10:21:38;9.03;;;6.50;;
5878;SDS011;2965;42.640;23.370;2023-09-30T10:35:16;13.57;;;6.47;;
5878;SDS011;2965;42.640;23.370;2023-09-30T10:37:47;8.63;;;6.17;;
5878;SDS011;2965;42.640;23.370;2023-09-30T10:40:28;7.43;;;6.70;;
5878;SDS011;2965;42.640;23.370;2023-09-30T10:42:58;7.83;;;5.37;;
5878;SDS011;2965;42.640;23.370;2023-09-30T10:51:00;7.80;;;5.63;;
5878;SDS011;2965;42.640;23.370;2023-09-30T10:53:39;13.07;;;5.60;;
5878;SDS011;2965;42.640;23.370;2023-09-30T10:56:06;4.87;;;4.57;;
5878;SDS011;2965;42.640;23.370;2023-09-30T11:01:07;9.23;;;4.60;;
5878;SDS011;2965;42.640;23.370;2023-09-30T11:03:33;5.57;;;5.17;;
5878;SDS011;2965;42.640;23.370;2023-09-30T11:05:58;5.57;;;5.00;;
5878;SDS011;2965;42.640;23.370;2023-09-30T11:08:24;13.20;;;4.83;;
5878;SDS011;2965;42.640;23.370;2023-09-30T11:10:54;6.80;;;6.23;;
5878;SDS011;2965;42.640;23.370;2023-09-30T11:13:20;5.17;;;4.70;;
5878;SDS011;2965;42.640;23.370;2023-09-30T11:15:46;7.40;;;4.90;;
5878;SDS011;2965;42.640;23.370;2023-09-30T11:18:13;5.90;;;5.50;;
5878;SDS011;2965;42.640;23.370;2023-09-30T11:20:39;12.17;;;5.23;;
5878;SDS011;2965;42.640;23.370;2023-09-30T11:23:05;8.30;;;4.67;;
5878;SDS011;2965;42.640;23.370;2023-09-30T11:25:35;6.10;;;4.97;;
5878;SDS011;2965;42.640;23.370;2023-09-30T11:28:15;7.93;;;5.07;;
5878;SDS011;2965;42.640;23.370;2023-09-30T11:30:57;11.47;;;5.60;;
5878;SDS011;2965;42.640;23.370;2023-09-30T11:33:27;5.30;;;4.90;;
5878;SDS011;2965;42.640;23.370;2023-09-30T11:38:23;5.20;;;4.90;;
5878;SDS011;2965;42.640;23.370;2023-09-30T11:43:27;5.70;;;5.30;;
5878;SDS011;2965;42.640;23.370;2023-09-30T11:46:03;7.70;;;5.67;;
5878;SDS011;2965;42.640;23.370;2023-09-30T11:48:33;5.37;;;4.97;;
5878;SDS011;2965;42.640;23.370;2023-09-30T11:51:03;6.43;;;5.40;;
5878;SDS011;2965;42.640;23.370;2023-09-30T11:53:29;5.70;;;5.10;;
5878;SDS011;2965;42.640;23.370;2023-09-30T11:55:56;5.70;;;5.40;;
5878;SDS011;2965;42.640;23.370;2023-09-30T11:58:28;6.30;;;5.43;;
5878;SDS011;2965;42.640;23.370;2023-09-30T12:00:54;6.30;;;5.40;;
5878;SDS011;2965;42.640;23.370;2023-09-30T12:03:22;8.33;;;5.30;;
5878;SDS011;2965;42.640;23.370;2023-09-30T12:05:48;6.73;;;6.07;;
5878;SDS011;2965;42.640;23.370;2023-09-30T12:08:13;6.50;;;5.90;;
5878;SDS011;2965;42.640;23.370;2023-09-30T12:10:39;5.93;;;5.60;;
5878;SDS011;2965;42.640;23.370;2023-09-30T12:13:05;6.77;;;6.17;;
5878;SDS011;2965;42.640;23.370;2023-09-30T12:15:30;7.50;;;6.07;;
5878;SDS011;2965;42.640;23.370;2023-09-30T12:17:56;16.40;;;5.83;;
5878;SDS011;2965;42.640;23.370;2023-09-30T12:20:21;6.43;;;5.20;;
5878;SDS011;2965;42.640;23.370;2023-09-30T12:22:47;10.43;;;5.97;;
5878;SDS011;2965;42.640;23.370;2023-09-30T12:25:13;6.40;;;5.70;;
5878;SDS011;2965;42.640;23.370;2023-09-30T12:27:39;7.30;;;6.67;;
5878;SDS011;2965;42.640;23.370;2023-09-30T12:30:05;6.70;;;5.57;;
5878;SDS011;2965;42.640;23.370;2023-09-30T12:32:31;6.47;;;5.97;;
5878;SDS011;2965;42.640;23.370;2023-09-30T12:34:57;8.77;;;5.93;;
5878;SDS011;2965;42.640;23.370;2023-09-30T12:37:22;6.33;;;5.83;;
5878;SDS011;2965;42.640;23.370;2023-09-30T12:39:47;6.63;;;6.10;;
5878;SDS011;2965;42.640;23.370;2023-09-30T12:42:13;7.50;;;6.50;;
5878;SDS011;2965;42.640;23.370;2023-09-30T12:44:39;7.50;;;7.10;;
5878;SDS011;2965;42.640;23.370;2023-09-30T12:47:05;7.50;;;6.90;;
5878;SDS011;2965;42.640;23.370;2023-09-30T12:49:30;9.80;;;6.50;;
5878;SDS011;2965;42.640;23.370;2023-09-30T12:51:56;6.73;;;6.10;;
5878;SDS011;2965;42.640;23.370;2023-09-30T12:54:24;8.07;;;6.60;;
5878;SDS011;2965;42.640;23.370;2023-09-30T12:56:49;7.20;;;6.70;;
5878;SDS011;2965;42.640;23.370;2023-09-30T12:59:15;19.83;;;6.37;;
5878;SDS011;2965;42.640;23.370;2023-09-30T13:01:42;11.33;;;5.90;;
5878;SDS011;2965;42.640;23.370;2023-09-30T13:04:08;9.87;;;6.47;;
5878;SDS011;2965;42.640;23.370;2023-09-30T13:06:34;9.97;;;6.30;;
5878;SDS011;2965;42.640;23.370;2023-09-30T13:09:00;6.70;;;6.23;;
5878;SDS011;2965;42.640;23.370;2023-09-30T13:11:26;8.30;;;6.37;;
5878;SDS011;2965;42.640;23.370;2023-09-30T13:13:51;6.97;;;6.37;;
5878;SDS011;2965;42.640;23.370;2023-09-30T13:16:17;6.63;;;6.00;;
5878;SDS011;2965;42.640;23.370;2023-09-30T13:18:43;6.00;;;5.70;;
5878;SDS011;2965;42.640;23.370;2023-09-30T13:21:08;7.57;;;6.83;;
5878;SDS011;2965;42.640;23.370;2023-09-30T13:23:34;9.17;;;6.43;;
5878;SDS011;2965;42.640;23.370;2023-09-30T13:26:00;6.40;;;5.80;;
5878;SDS011;2965;42.640;23.370;2023-09-30T13:28:26;13.10;;;6.37;;
5878;SDS011;2965;42.640;23.370;2023-09-30T13:30:53;22.70;;;6.40;;
5878;SDS011;2965;42.640;23.370;2023-09-30T13:33:18;7.13;;;6.43;;
5878;SDS011;2965;42.640;23.370;2023-09-30T13:35:46;6.53;;;6.00;;
5878;SDS011;2965;42.640;23.370;2023-09-30T13:38:11;5.87;;;5.57;;
5878;SDS011;2965;42.640;23.370;2023-09-30T13:40:37;7.07;;;6.37;;
5878;SDS011;2965;42.640;23.370;2023-09-30T13:43:05;18.50;;;6.83;;
5878;SDS011;2965;42.640;23.370;2023-09-30T13:45:32;9.30;;;6.53;;
5878;SDS011;2965;42.640;23.370;2023-09-30T13:47:57;6.60;;;6.20;;
5878;SDS011;2965;42.640;23.370;2023-09-30T13:50:22;6.30;;;5.90;;
5878;SDS011;2965;42.640;23.370;2023-09-30T13:52:48;7.93;;;7.13;;
5878;SDS011;2965;42.640;23.370;2023-09-30T13:55:13;6.57;;;5.93;;
5878;SDS011;2965;42.640;23.370;2023-09-30T13:57:47;13.90;;;7.00;;
5878;SDS011;2965;42.640;23.370;2023-09-30T14:00:15;8.83;;;6.57;;
5878;SDS011;2965;42.640;23.370;2023-09-30T14:02:42;7.47;;;6.97;;
5878;SDS011;2965;42.640;23.370;2023-09-30T14:05:08;11.40;;;6.50;;
5878;SDS011;2965;42.640;23.370;2023-09-30T14:07:37;10.43;;;6.23;;
5878;SDS011;2965;42.640;23.370;2023-09-30T14:10:03;8.90;;;6.10;;
5878;SDS011;2965;42.640;23.370;2023-09-30T14:12:29;8.00;;;6.73;;
5878;SDS011;2965;42.640;23.370;2023-09-30T14:14:54;10.20;;;6.80;;
5878;SDS011;2965;42.640;23.370;2023-09-30T14:17:20;13.13;;;6.67;;
5878;SDS011;2965;42.640;23.370;2023-09-30T14:19:45;9.50;;;6.50;;
5878;SDS011;2965;42.640;23.370;2023-09-30T14:22:11;7.40;;;6.57;;
5878;SDS011;2965;42.640;23.370;2023-09-30T14:24:37;11.60;;;6.70;;
5878;SDS011;2965;42.640;23.370;2023-09-30T14:27:02;6.50;;;5.67;;
5878;SDS011;2965;42.640;23.370;2023-09-30T14:29:29;6.57;;;6.13;;
5878;SDS011;2965;42.640;23.370;2023-09-30T14:31:55;9.03;;;5.90;;
5878;SDS011;2965;42.640;23.370;2023-09-30T14:34:21;5.77;;;5.37;;
5878;SDS011;2965;42.640;23.370;2023-09-30T14:36:47;6.03;;;5.53;;
5878;SDS011;2965;42.640;23.370;2023-09-30T14:39:13;9.50;;;5.60;;
5878;SDS011;2965;42.640;23.370;2023-09-30T14:41:38;6.00;;;5.60;;
5878;SDS011;2965;42.640;23.370;2023-09-30T14:44:04;9.47;;;6.37;;
5878;SDS011;2965;42.640;23.370;2023-09-30T14:46:32;11.03;;;5.73;;
5878;SDS011;2965;42.640;23.370;2023-09-30T14:49:00;5.60;;;5.20;;
5878;SDS011;2965;42.640;23.370;2023-09-30T14:51:26;10.67;;;5.90;;
5878;SDS011;2965;42.640;23.370;2023-09-30T14:53:51;15.40;;;5.80;;
5878;SDS011;2965;42.640;23.370;2023-09-30T14:56:17;7.30;;;6.70;;
5878;SDS011;2965;42.640;23.370;2023-09-30T14:58:43;11.43;;;5.83;;
5878;SDS011;2965;42.640;23.370;2023-09-30T15:01:09;14.17;;;6.53;;
5878;SDS011;2965;42.640;23.370;2023-09-30T15:03:35;6.23;;;5.63;;
5878;SDS011;2965;42.640;23.370;2023-09-30T15:06:02;6.53;;;5.07;;
5878;SDS011;2965;42.640;23.370;2023-09-30T15:08:31;5.80;;;5.50;;
5878;SDS011;2965;42.640;23.370;2023-09-30T15:11:00;6.70;;;6.10;;
5878;SDS011;2965;42.640;23.370;2023-09-30T15:13:27;6.40;;;5.43;;
5878;SDS011;2965;42.640;23.370;2023-09-30T15:15:53;5.60;;;5.17;;
5878;SDS011;2965;42.640;23.370;2023-09-30T15:18:19;7.17;;;6.43;;
5878;SDS011;2965;42.640;23.370;2023-09-30T15:20:44;9.33;;;5.73;;
5878;SDS011;2965;42.640;23.370;2023-09-30T15:23:11;8.27;;;5.70;;
5878;SDS011;2965;42.640;23.370;2023-09-30T15:25:40;7.50;;;6.20;;
5878;SDS011;2965;42.640;23.370;2023-09-30T15:28:07;6.53;;;5.13;;
5878;SDS011;2965;42.640;23.370;2023-09-30T15:30:33;12.50;;;6.60;;
5878;SDS011;2965;42.640;23.370;2023-09-30T15:32:58;10.07;;;6.00;;
5878;SDS011;2965;42.640;23.370;2023-09-30T15:35:23;11.00;;;5.97;;
5878;SDS011;2965;42.640;23.370;2023-09-30T15:37:49;7.63;;;5.87;;
5878;SDS011;2965;42.640;23.370;2023-09-30T15:40:15;8.03;;;4.90;;
5878;SDS011;2965;42.640;23.370;2023-09-30T15:42:42;5.57;;;5.27;;
5878;SDS011;2965;42.640;23.370;2023-09-30T15:45:08;11.33;;;6.00;;
5878;SDS011;2965;42.640;23.370;2023-09-30T15:47:36;8.43;;;6.53;;
5878;SDS011;2965;42.640;23.370;2023-09-30T15:50:02;7.97;;;5.67;;
5878;SDS011;2965;42.640;23.370;2023-09-30T15:52:28;13.33;;;5.63;;
5878;SDS011;2965;42.640;23.370;2023-09-30T15:54:54;11.03;;;5.50;;
5878;SDS011;2965;42.640;23.370;2023-09-30T15:57:21;6.73;;;6.17;;
5878;SDS011;2965;42.640;23.370;2023-09-30T15:59:47;12.63;;;6.83;;
5878;SDS011;2965;42.640;23.370;2023-09-30T16:02:12;7.37;;;6.70;;
5878;SDS011;2965;42.640;23.370;2023-09-30T16:04:38;8.90;;;7.13;;
5878;SDS011;2965;42.640;23.370;2023-09-30T16:07:04;15.80;;;7.37;;
5878;SDS011;2965;42.640;23.370;2023-09-30T16:09:29;9.60;;;6.70;;
5878;SDS011;2965;42.640;23.370;2023-09-30T16:11:55;12.57;;;7.50;;
5878;SDS011;2965;42.640;23.370;2023-09-30T16:14:20;9.40;;;6.63;;
5878;SDS011;2965;42.640;23.370;2023-09-30T16:16:45;11.80;;;6.60;;
5878;SDS011;2965;42.640;23.370;2023-09-30T16:19:11;10.23;;;6.90;;
5878;SDS011;2965;42.640;23.370;2023-09-30T16:21:37;19.60;;;6.43;;
5878;SDS011;2965;42.640;23.370;2023-09-30T16:24:03;13.17;;;6.83;;
5878;SDS011;2965;42.640;23.370;2023-09-30T16:26:28;17.77;;;7.00;;
5878;SDS011;2965;42.640;23.370;2023-09-30T16:28:54;9.73;;;6.27;;
5878;SDS011;2965;42.640;23.370;2023-09-30T16:31:19;6.97;;;6.53;;
5878;SDS011;2965;42.640;23.370;2023-09-30T16:33:44;8.77;;;6.63;;
5878;SDS011;2965;42.640;23.370;2023-09-30T16:36:10;11.63;;;7.37;;
5878;SDS011;2965;42.640;23.370;2023-09-30T16:38:35;10.03;;;7.07;;
5878;SDS011;2965;42.640;23.370;2023-09-30T16:41:00;10.90;;;6.73;;
5878;SDS011;2965;42.640;23.370;2023-09-30T16:43:27;12.70;;;7.23;;
5878;SDS011;2965;42.640;23.370;2023-09-30T16:45:53;11.80;;;7.40;;
5878;SDS011;2965;42.640;23.370;2023-09-30T16:48:18;23.10;;;8.87;;
5878;SDS011;2965;42.640;23.370;2023-09-30T16:50:44;39.50;;;10.37;;
5878;SDS011;2965;42.640;23.370;2023-09-30T16:53:10;25.97;;;7.50;;
5878;SDS011;2965;42.640;23.370;2023-09-30T16:55:36;13.63;;;8.40;;
5878;SDS011;2965;42.640;23.370;2023-09-30T16:58:02;14.40;;;8.03;;
5878;SDS011;2965;42.640;23.370;2023-09-30T17:00:28;19.90;;;9.60;;
5878;SDS011;2965;42.640;23.370;2023-09-30T17:02:54;15.77;;;8.60;;
5878;SDS011;2965;42.640;23.370;2023-09-30T17:05:19;10.80;;;9.03;;
5878;SDS011;2965;42.640;23.370;2023-09-30T17:07:45;16.03;;;8.80;;
5878;SDS011;2965;42.640;23.370;2023-09-30T17:10:11;18.13;;;9.10;;
5878;SDS011;2965;42.640;23.370;2023-09-30T17:12:37;10.17;;;8.90;;
5878;SDS011;2965;42.640;23.370;2023-09-30T17:15:02;13.60;;;8.40;;
5878;SDS011;2965;42.640;23.370;2023-09-30T17:17:29;23.33;;;10.00;;
5878;SDS011;2965;42.640;23.370;2023-09-30T17:19:54;17.53;;;9.47;;
5878;SDS011;2965;42.640;23.370;2023-09-30T17:22:20;21.33;;;9.57;;
5878;SDS011;2965;42.640;23.370;2023-09-30T17:24:45;8.60;;;7.60;;
5878;SDS011;2965;42.640;23.370;2023-09-30T17:27:11;9.13;;;7.47;;
5878;SDS011;2965;42.640;23.370;2023-09-30T17:29:37;13.00;;;8.70;;
5878;SDS011;2965;42.640;23.370;2023-09-30T17:32:03;21.27;;;9.43;;
5878;SDS011;2965;42.640;23.370;2023-09-30T17:34:32;12.40;;;9.03;;
5878;SDS011;2965;42.640;23.370;2023-09-30T17:37:00;12.70;;;8.37;;
5878;SDS011;2965;42.640;23.370;2023-09-30T17:39:29;11.73;;;9.23;;
5878;SDS011;2965;42.640;23.370;2023-09-30T17:41:55;14.83;;;8.37;;
5878;SDS011;2965;42.640;23.370;2023-09-30T17:44:20;25.43;;;7.87;;
5878;SDS011;2965;42.640;23.370;2023-09-30T17:46:46;25.83;;;8.87;;
5878;SDS011;2965;42.640;23.370;2023-09-30T17:49:12;11.07;;;9.37;;
5878;SDS011;2965;42.640;23.370;2023-09-30T17:51:37;24.43;;;7.50;;
5878;SDS011;2965;42.640;23.370;2023-09-30T17:54:03;13.37;;;8.50;;
5878;SDS011;2965;42.640;23.370;2023-09-30T17:56:28;14.20;;;10.60;;
5878;SDS011;2965;42.640;23.370;2023-09-30T17:58:54;29.90;;;11.50;;
5878;SDS011;2965;42.640;23.370;2023-09-30T18:01:20;16.87;;;8.87;;
5878;SDS011;2965;42.640;23.370;2023-09-30T18:03:48;11.80;;;9.47;;
5878;SDS011;2965;42.640;23.370;2023-09-30T18:06:14;17.10;;;8.10;;
5878;SDS011;2965;42.640;23.370;2023-09-30T18:08:40;24.27;;;9.53;;
5878;SDS011;2965;42.640;23.370;2023-09-30T18:11:07;21.13;;;8.90;;
5878;SDS011;2965;42.640;23.370;2023-09-30T18:13:35;18.10;;;8.87;;
5878;SDS011;2965;42.640;23.370;2023-09-30T18:16:02;23.93;;;11.67;;
5878;SDS011;2965;42.640;23.370;2023-09-30T18:18:28;17.63;;;9.43;;
5878;SDS011;2965;42.640;23.370;2023-09-30T18:20:54;18.67;;;8.40;;
5878;SDS011;2965;42.640;23.370;2023-09-30T18:23:19;9.33;;;7.87;;
5878;SDS011;2965;42.640;23.370;2023-09-30T18:25:45;29.33;;;8.30;;
5878;SDS011;2965;42.640;23.370;2023-09-30T18:28:11;10.03;;;7.67;;
5878;SDS011;2965;42.640;23.370;2023-09-30T18:30:43;11.23;;;7.10;;
5878;SDS011;2965;42.640;23.370;2023-09-30T18:33:09;11.17;;;7.97;;
5878;SDS011;2965;42.640;23.370;2023-09-30T18:35:37;18.40;;;7.90;;
5878;SDS011;2965;42.640;23.370;2023-09-30T18:38:03;18.47;;;8.20;;
5878;SDS011;2965;42.640;23.370;2023-09-30T18:40:29;9.90;;;8.23;;
5878;SDS011;2965;42.640;23.370;2023-09-30T18:42:55;14.60;;;9.17;;
5878;SDS011;2965;42.640;23.370;2023-09-30T18:45:22;8.30;;;7.60;;
5878;SDS011;2965;42.640;23.370;2023-09-30T18:47:48;12.83;;;8.00;;
5878;SDS011;2965;42.640;23.370;2023-09-30T18:50:15;11.20;;;8.00;;
5878;SDS011;2965;42.640;23.370;2023-09-30T18:55:13;25.90;;;8.30;;
5878;SDS011;2965;42.640;23.370;2023-09-30T18:57:39;13.63;;;7.53;;
5878;SDS011;2965;42.640;23.370;2023-09-30T19:00:05;13.07;;;8.17;;
5878;SDS011;2965;42.640;23.370;2023-09-30T19:02:31;10.87;;;7.90;;
5878;SDS011;2965;42.640;23.370;2023-09-30T19:04:58;18.50;;;7.67;;
5878;SDS011;2965;42.640;23.370;2023-09-30T19:07:23;17.17;;;7.27;;
5878;SDS011;2965;42.640;23.370;2023-09-30T19:09:49;10.47;;;8.67;;
5878;SDS011;2965;42.640;23.370;2023-09-30T19:12:14;15.40;;;8.10;;
5878;SDS011;2965;42.640;23.370;2023-09-30T19:14:39;11.40;;;7.43;;
5878;SDS011;2965;42.640;23.370;2023-09-30T19:17:05;14.90;;;7.03;;
5878;SDS011;2965;42.640;23.370;2023-09-30T19:19:31;17.20;;;8.77;;